sensor_id;sensor_type;location;lat;lon;timestamp;P1;durP1;ratioP1;P2;durP2;ratioP2
41837;SDS011;27511;52.042;5.178;2022-08-19T00:01:37;7.03;;;6.10;;
41837;SDS011;27511;52.042;5.178;2022-08-19T00:04:05;7.80;;;6.57;;
41837;SDS011;27511;52.042;5.178;2022-08-19T00:06:34;6.70;;;5.70;;
41837;SDS011;27511;52.042;5.178;2022-08-19T00:09:02;6.60;;;5.90;;
41837;SDS011;27511;52.042;5.178;2022-08-19T00:11:29;7.68;;;5.78;;
41837;SDS011;27511;52.042;5.178;2022-08-19T00:13:55;8.73;;;6.07;;
41837;SDS011;27511;52.042;5.178;2022-08-19T00:16:21;7.38;;;5.50;;
41837;SDS011;27511;52.042;5.178;2022-08-19T00:18:48;7.90;;;6.22;;
41837;SDS011;27511;52.042;5.178;2022-08-19T00:21:14;7.35;;;5.72;;
41837;SDS011;27511;52.042;5.178;2022-08-19T00:23:40;6.82;;;5.47;;
41837;SDS011;27511;52.042;5.178;2022-08-19T00:26:08;7.95;;;5.10;;
41837;SDS011;27511;52.042;5.178;2022-08-19T00:28:34;6.60;;;5.60;;
41837;SDS011;27511;52.042;5.178;2022-08-19T00:31:01;7.20;;;5.55;;
41837;SDS011;27511;52.042;5.178;2022-08-19T00:33:29;6.30;;;5.07;;
41837;SDS011;27511;52.042;5.178;2022-08-19T00:35:59;5.50;;;5.00;;
41837;SDS011;27511;52.042;5.178;2022-08-19T00:38:25;6.72;;;5.47;;
41837;SDS011;27511;52.042;5.178;2022-08-19T00:40:51;6.75;;;5.15;;
41837;SDS011;27511;52.042;5.178;2022-08-19T00:43:21;5.38;;;4.70;;
41837;SDS011;27511;52.042;5.178;2022-08-19T00:45:49;6.00;;;5.35;;
41837;SDS011;27511;52.042;5.178;2022-08-19T00:48:15;5.80;;;5.13;;
41837;SDS011;27511;52.042;5.178;2022-08-19T00:50:41;5.45;;;4.95;;
41837;SDS011;27511;52.042;5.178;2022-08-19T00:53:09;6.47;;;5.30;;
41837;SDS011;27511;52.042;5.178;2022-08-19T00:55:40;8.13;;;5.90;;
41837;SDS011;27511;52.042;5.178;2022-08-19T00:58:11;6.55;;;5.43;;
41837;SDS011;27511;52.042;5.178;2022-08-19T01:00:39;6.82;;;5.57;;
41837;SDS011;27511;52.042;5.178;2022-08-19T01:03:07;7.82;;;5.75;;
41837;SDS011;27511;52.042;5.178;2022-08-19T01:05:35;7.93;;;5.90;;
41837;SDS011;27511;52.042;5.178;2022-08-19T01:08:02;6.60;;;5.30;;
41837;SDS011;27511;52.042;5.178;2022-08-19T01:10:31;7.63;;;5.38;;
41837;SDS011;27511;52.042;5.178;2022-08-19T01:13:00;6.60;;;5.60;;
41837;SDS011;27511;52.042;5.178;2022-08-19T01:15:29;5.75;;;5.03;;
41837;SDS011;27511;52.042;5.178;2022-08-19T01:18:04;6.75;;;5.25;;
41837;SDS011;27511;52.042;5.178;2022-08-19T01:22:59;8.38;;;5.05;;
41837;SDS011;27511;52.042;5.178;2022-08-19T01:25:32;6.00;;;5.10;;
41837;SDS011;27511;52.042;5.178;2022-08-19T01:28:19;9.10;;;5.38;;
41837;SDS011;27511;52.042;5.178;2022-08-19T01:30:47;6.85;;;5.20;;
41837;SDS011;27511;52.042;5.178;2022-08-19T01:33:13;6.50;;;5.53;;
41837;SDS011;27511;52.042;5.178;2022-08-19T01:35:39;6.90;;;5.60;;
41837;SDS011;27511;52.042;5.178;2022-08-19T01:38:07;7.70;;;6.00;;
41837;SDS011;27511;52.042;5.178;2022-08-19T01:40:36;6.22;;;5.30;;
41837;SDS011;27511;52.042;5.178;2022-08-19T01:43:04;6.70;;;5.28;;
41837;SDS011;27511;52.042;5.178;2022-08-19T01:45:31;7.55;;;6.20;;
41837;SDS011;27511;52.042;5.178;2022-08-19T01:47:57;7.55;;;6.07;;
41837;SDS011;27511;52.042;5.178;2022-08-19T01:50:24;12.18;;;7.35;;
41837;SDS011;27511;52.042;5.178;2022-08-19T01:52:50;7.03;;;6.07;;
41837;SDS011;27511;52.042;5.178;2022-08-19T01:55:17;7.32;;;6.22;;
41837;SDS011;27511;52.042;5.178;2022-08-19T01:57:46;9.98;;;5.63;;
41837;SDS011;27511;52.042;5.178;2022-08-19T02:00:16;7.60;;;6.03;;
41837;SDS011;27511;52.042;5.178;2022-08-19T02:02:43;7.75;;;5.55;;
41837;SDS011;27511;52.042;5.178;2022-08-19T02:05:10;8.35;;;5.45;;
41837;SDS011;27511;52.042;5.178;2022-08-19T02:07:38;7.28;;;5.20;;
41837;SDS011;27511;52.042;5.178;2022-08-19T02:10:06;6.72;;;5.20;;
41837;SDS011;27511;52.042;5.178;2022-08-19T02:12:34;6.75;;;5.68;;
41837;SDS011;27511;52.042;5.178;2022-08-19T02:15:00;6.45;;;5.15;;
41837;SDS011;27511;52.042;5.178;2022-08-19T02:17:27;7.18;;;5.28;;
41837;SDS011;27511;52.042;5.178;2022-08-19T02:19:54;7.47;;;5.45;;
41837;SDS011;27511;52.042;5.178;2022-08-19T02:22:21;7.30;;;5.40;;
41837;SDS011;27511;52.042;5.178;2022-08-19T02:24:47;7.15;;;5.55;;
41837;SDS011;27511;52.042;5.178;2022-08-19T02:27:13;7.75;;;5.88;;
41837;SDS011;27511;52.042;5.178;2022-08-19T02:29:39;7.50;;;5.72;;
41837;SDS011;27511;52.042;5.178;2022-08-19T02:32:06;7.68;;;5.63;;
41837;SDS011;27511;52.042;5.178;2022-08-19T02:34:32;8.73;;;6.68;;
41837;SDS011;27511;52.042;5.178;2022-08-19T02:36:57;11.05;;;6.90;;
41837;SDS011;27511;52.042;5.178;2022-08-19T02:39:23;8.40;;;6.32;;
41837;SDS011;27511;52.042;5.178;2022-08-19T02:41:48;8.00;;;6.55;;
41837;SDS011;27511;52.042;5.178;2022-08-19T02:44:15;9.30;;;6.65;;
41837;SDS011;27511;52.042;5.178;2022-08-19T02:46:41;7.43;;;5.88;;
41837;SDS011;27511;52.042;5.178;2022-08-19T02:49:08;7.97;;;6.35;;
41837;SDS011;27511;52.042;5.178;2022-08-19T02:51:36;9.32;;;6.28;;
41837;SDS011;27511;52.042;5.178;2022-08-19T02:54:03;8.27;;;6.97;;
41837;SDS011;27511;52.042;5.178;2022-08-19T02:56:30;10.57;;;7.13;;
41837;SDS011;27511;52.042;5.178;2022-08-19T02:58:56;10.27;;;7.28;;
41837;SDS011;27511;52.042;5.178;2022-08-19T03:01:27;9.02;;;7.15;;
41837;SDS011;27511;52.042;5.178;2022-08-19T03:03:54;9.55;;;7.60;;
41837;SDS011;27511;52.042;5.178;2022-08-19T03:06:20;10.48;;;8.05;;
41837;SDS011;27511;52.042;5.178;2022-08-19T03:08:47;11.35;;;7.38;;
41837;SDS011;27511;52.042;5.178;2022-08-19T03:11:15;10.13;;;7.20;;
41837;SDS011;27511;52.042;5.178;2022-08-19T03:13:52;13.98;;;9.40;;
41837;SDS011;27511;52.042;5.178;2022-08-19T03:16:19;10.88;;;7.80;;
41837;SDS011;27511;52.042;5.178;2022-08-19T03:18:47;9.73;;;7.60;;
41837;SDS011;27511;52.042;5.178;2022-08-19T03:21:17;10.35;;;6.82;;
41837;SDS011;27511;52.042;5.178;2022-08-19T03:23:45;11.15;;;7.47;;
41837;SDS011;27511;52.042;5.178;2022-08-19T03:26:11;8.98;;;7.10;;
41837;SDS011;27511;52.042;5.178;2022-08-19T03:28:36;10.23;;;7.10;;
41837;SDS011;27511;52.042;5.178;2022-08-19T03:31:10;9.70;;;6.38;;
41837;SDS011;27511;52.042;5.178;2022-08-19T03:33:38;9.27;;;6.28;;
41837;SDS011;27511;52.042;5.178;2022-08-19T03:36:09;8.73;;;6.53;;
41837;SDS011;27511;52.042;5.178;2022-08-19T03:38:38;8.50;;;6.63;;
41837;SDS011;27511;52.042;5.178;2022-08-19T03:41:06;10.25;;;6.72;;
41837;SDS011;27511;52.042;5.178;2022-08-19T03:43:34;10.02;;;7.00;;
41837;SDS011;27511;52.042;5.178;2022-08-19T03:46:02;11.80;;;6.90;;
41837;SDS011;27511;52.042;5.178;2022-08-19T03:48:33;10.88;;;6.95;;
41837;SDS011;27511;52.042;5.178;2022-08-19T03:50:59;7.45;;;5.65;;
41837;SDS011;27511;52.042;5.178;2022-08-19T03:53:26;10.20;;;6.25;;
41837;SDS011;27511;52.042;5.178;2022-08-19T03:55:53;8.95;;;5.95;;
41837;SDS011;27511;52.042;5.178;2022-08-19T03:58:20;9.25;;;6.47;;
41837;SDS011;27511;52.042;5.178;2022-08-19T04:00:46;12.70;;;8.13;;
41837;SDS011;27511;52.042;5.178;2022-08-19T04:03:12;13.07;;;9.32;;
41837;SDS011;27511;52.042;5.178;2022-08-19T04:05:37;13.60;;;9.50;;
41837;SDS011;27511;52.042;5.178;2022-08-19T04:08:03;13.82;;;9.32;;
41837;SDS011;27511;52.042;5.178;2022-08-19T04:10:31;12.13;;;8.27;;
41837;SDS011;27511;52.042;5.178;2022-08-19T04:13:01;14.30;;;9.20;;
41837;SDS011;27511;52.042;5.178;2022-08-19T04:15:28;14.55;;;8.55;;
41837;SDS011;27511;52.042;5.178;2022-08-19T04:17:58;14.40;;;9.13;;
41837;SDS011;27511;52.042;5.178;2022-08-19T04:20:23;12.30;;;8.95;;
41837;SDS011;27511;52.042;5.178;2022-08-19T04:22:49;14.90;;;9.73;;
41837;SDS011;27511;52.042;5.178;2022-08-19T04:25:15;12.80;;;9.45;;
41837;SDS011;27511;52.042;5.178;2022-08-19T04:27:40;14.90;;;9.77;;
41837;SDS011;27511;52.042;5.178;2022-08-19T04:30:08;15.27;;;10.35;;
41837;SDS011;27511;52.042;5.178;2022-08-19T04:32:34;14.57;;;9.55;;
41837;SDS011;27511;52.042;5.178;2022-08-19T04:35:00;18.02;;;10.20;;
41837;SDS011;27511;52.042;5.178;2022-08-19T04:37:26;16.25;;;10.30;;
41837;SDS011;27511;52.042;5.178;2022-08-19T04:39:52;18.23;;;10.65;;
41837;SDS011;27511;52.042;5.178;2022-08-19T04:42:36;14.00;;;9.93;;
41837;SDS011;27511;52.042;5.178;2022-08-19T04:45:05;15.40;;;10.00;;
41837;SDS011;27511;52.042;5.178;2022-08-19T04:47:32;16.27;;;10.52;;
41837;SDS011;27511;52.042;5.178;2022-08-19T04:49:57;17.50;;;11.23;;
41837;SDS011;27511;52.042;5.178;2022-08-19T04:52:23;16.48;;;10.52;;
41837;SDS011;27511;52.042;5.178;2022-08-19T04:54:49;19.48;;;12.13;;
41837;SDS011;27511;52.042;5.178;2022-08-19T04:57:14;19.48;;;11.65;;
41837;SDS011;27511;52.042;5.178;2022-08-19T04:59:40;17.00;;;11.25;;
41837;SDS011;27511;52.042;5.178;2022-08-19T05:02:06;16.27;;;10.63;;
41837;SDS011;27511;52.042;5.178;2022-08-19T05:04:34;18.45;;;11.23;;
41837;SDS011;27511;52.042;5.178;2022-08-19T05:07:03;18.80;;;11.43;;
41837;SDS011;27511;52.042;5.178;2022-08-19T05:09:29;14.27;;;10.30;;
41837;SDS011;27511;52.042;5.178;2022-08-19T05:11:55;18.15;;;11.55;;
41837;SDS011;27511;52.042;5.178;2022-08-19T05:14:20;15.70;;;10.73;;
41837;SDS011;27511;52.042;5.178;2022-08-19T05:16:46;15.57;;;10.93;;
41837;SDS011;27511;52.042;5.178;2022-08-19T05:19:12;16.42;;;10.52;;
41837;SDS011;27511;52.042;5.178;2022-08-19T05:21:56;17.67;;;11.20;;
41837;SDS011;27511;52.042;5.178;2022-08-19T05:24:40;18.63;;;11.05;;
41837;SDS011;27511;52.042;5.178;2022-08-19T05:27:06;19.40;;;10.85;;
41837;SDS011;27511;52.042;5.178;2022-08-19T05:29:32;19.10;;;12.05;;
41837;SDS011;27511;52.042;5.178;2022-08-19T05:31:59;20.67;;;12.68;;
41837;SDS011;27511;52.042;5.178;2022-08-19T05:34:26;20.75;;;12.57;;
41837;SDS011;27511;52.042;5.178;2022-08-19T05:36:53;25.90;;;14.20;;
41837;SDS011;27511;52.042;5.178;2022-08-19T05:39:22;28.35;;;16.20;;
41837;SDS011;27511;52.042;5.178;2022-08-19T05:41:53;38.28;;;21.52;;
41837;SDS011;27511;52.042;5.178;2022-08-19T05:44:25;36.05;;;20.27;;
41837;SDS011;27511;52.042;5.178;2022-08-19T05:46:52;41.30;;;22.60;;
41837;SDS011;27511;52.042;5.178;2022-08-19T05:49:21;46.85;;;25.10;;
41837;SDS011;27511;52.042;5.178;2022-08-19T05:51:47;48.28;;;26.48;;
41837;SDS011;27511;52.042;5.178;2022-08-19T05:54:14;54.30;;;27.27;;
41837;SDS011;27511;52.042;5.178;2022-08-19T05:56:40;54.60;;;26.45;;
41837;SDS011;27511;52.042;5.178;2022-08-19T05:59:06;54.58;;;26.65;;
41837;SDS011;27511;52.042;5.178;2022-08-19T06:01:36;55.45;;;28.35;;
41837;SDS011;27511;52.042;5.178;2022-08-19T06:04:03;54.63;;;27.75;;
41837;SDS011;27511;52.042;5.178;2022-08-19T06:06:29;54.13;;;29.63;;
41837;SDS011;27511;52.042;5.178;2022-08-19T06:08:55;54.10;;;27.58;;
41837;SDS011;27511;52.042;5.178;2022-08-19T06:11:25;54.03;;;27.08;;
41837;SDS011;27511;52.042;5.178;2022-08-19T06:14:00;57.47;;;28.75;;
41837;SDS011;27511;52.042;5.178;2022-08-19T06:16:27;55.58;;;27.30;;
41837;SDS011;27511;52.042;5.178;2022-08-19T06:18:55;55.00;;;26.17;;
41837;SDS011;27511;52.042;5.178;2022-08-19T06:21:23;57.42;;;27.35;;
41837;SDS011;27511;52.042;5.178;2022-08-19T06:23:50;51.08;;;27.20;;
41837;SDS011;27511;52.042;5.178;2022-08-19T06:26:17;60.25;;;28.45;;
41837;SDS011;27511;52.042;5.178;2022-08-19T06:28:44;56.92;;;26.85;;
41837;SDS011;27511;52.042;5.178;2022-08-19T06:31:46;57.78;;;27.35;;
41837;SDS011;27511;52.042;5.178;2022-08-19T06:34:05;56.85;;;27.92;;
41837;SDS011;27511;52.042;5.178;2022-08-19T06:36:35;57.67;;;28.73;;
41837;SDS011;27511;52.042;5.178;2022-08-19T06:39:05;56.30;;;27.88;;
41837;SDS011;27511;52.042;5.178;2022-08-19T06:41:37;58.33;;;29.87;;
41837;SDS011;27511;52.042;5.178;2022-08-19T06:44:05;59.58;;;28.50;;
41837;SDS011;27511;52.042;5.178;2022-08-19T06:46:31;65.45;;;31.10;;
41837;SDS011;27511;52.042;5.178;2022-08-19T06:48:57;69.82;;;30.25;;
41837;SDS011;27511;52.042;5.178;2022-08-19T06:51:23;54.58;;;29.17;;
41837;SDS011;27511;52.042;5.178;2022-08-19T06:53:51;61.63;;;30.23;;
41837;SDS011;27511;52.042;5.178;2022-08-19T06:56:21;52.85;;;27.13;;
41837;SDS011;27511;52.042;5.178;2022-08-19T06:58:50;53.55;;;26.55;;
41837;SDS011;27511;52.042;5.178;2022-08-19T07:01:17;51.97;;;27.77;;
41837;SDS011;27511;52.042;5.178;2022-08-19T07:03:44;50.03;;;25.90;;
41837;SDS011;27511;52.042;5.178;2022-08-19T07:06:12;45.50;;;25.42;;
41837;SDS011;27511;52.042;5.178;2022-08-19T07:08:40;50.65;;;26.13;;
41837;SDS011;27511;52.042;5.178;2022-08-19T07:11:07;47.05;;;25.73;;
41837;SDS011;27511;52.042;5.178;2022-08-19T07:13:34;51.28;;;26.55;;
41837;SDS011;27511;52.042;5.178;2022-08-19T07:16:07;48.22;;;25.77;;
41837;SDS011;27511;52.042;5.178;2022-08-19T07:18:39;47.30;;;24.58;;
41837;SDS011;27511;52.042;5.178;2022-08-19T07:21:05;49.38;;;23.92;;
41837;SDS011;27511;52.042;5.178;2022-08-19T07:23:32;50.10;;;25.63;;
41837;SDS011;27511;52.042;5.178;2022-08-19T07:26:03;45.13;;;23.95;;
41837;SDS011;27511;52.042;5.178;2022-08-19T07:28:31;47.20;;;24.10;;
41837;SDS011;27511;52.042;5.178;2022-08-19T07:30:56;46.67;;;23.38;;
41837;SDS011;27511;52.042;5.178;2022-08-19T07:33:22;39.08;;;22.58;;
41837;SDS011;27511;52.042;5.178;2022-08-19T07:35:47;43.85;;;22.75;;
41837;SDS011;27511;52.042;5.178;2022-08-19T07:38:15;39.85;;;22.33;;
41837;SDS011;27511;52.042;5.178;2022-08-19T07:40:41;45.00;;;23.60;;
41837;SDS011;27511;52.042;5.178;2022-08-19T07:43:10;44.03;;;23.42;;
41837;SDS011;27511;52.042;5.178;2022-08-19T07:45:36;37.17;;;20.65;;
41837;SDS011;27511;52.042;5.178;2022-08-19T07:48:02;37.90;;;21.45;;
41837;SDS011;27511;52.042;5.178;2022-08-19T07:50:28;40.47;;;21.88;;
41837;SDS011;27511;52.042;5.178;2022-08-19T07:52:54;39.15;;;20.60;;
41837;SDS011;27511;52.042;5.178;2022-08-19T07:55:22;37.90;;;21.25;;
41837;SDS011;27511;52.042;5.178;2022-08-19T07:57:49;35.17;;;20.88;;
41837;SDS011;27511;52.042;5.178;2022-08-19T08:00:17;37.88;;;21.35;;
41837;SDS011;27511;52.042;5.178;2022-08-19T08:02:43;38.90;;;22.95;;
41837;SDS011;27511;52.042;5.178;2022-08-19T08:05:09;39.33;;;21.15;;
41837;SDS011;27511;52.042;5.178;2022-08-19T08:07:54;37.05;;;22.20;;
41837;SDS011;27511;52.042;5.178;2022-08-19T08:10:39;39.92;;;21.73;;
41837;SDS011;27511;52.042;5.178;2022-08-19T08:13:04;42.03;;;21.80;;
41837;SDS011;27511;52.042;5.178;2022-08-19T08:15:31;41.75;;;22.88;;
41837;SDS011;27511;52.042;5.178;2022-08-19T08:17:57;35.72;;;22.38;;
41837;SDS011;27511;52.042;5.178;2022-08-19T08:20:22;38.85;;;23.40;;
41837;SDS011;27511;52.042;5.178;2022-08-19T08:22:49;40.00;;;23.08;;
41837;SDS011;27511;52.042;5.178;2022-08-19T08:28:00;34.97;;;19.35;;
41837;SDS011;27511;52.042;5.178;2022-08-19T08:30:26;36.90;;;21.30;;
41837;SDS011;27511;52.042;5.178;2022-08-19T08:32:53;40.92;;;22.70;;
41837;SDS011;27511;52.042;5.178;2022-08-19T08:35:20;44.83;;;23.70;;
41837;SDS011;27511;52.042;5.178;2022-08-19T08:37:48;39.53;;;23.40;;
41837;SDS011;27511;52.042;5.178;2022-08-19T08:40:22;39.83;;;21.52;;
41837;SDS011;27511;52.042;5.178;2022-08-19T08:42:53;28.48;;;19.02;;
41837;SDS011;27511;52.042;5.178;2022-08-19T08:45:46;40.60;;;21.33;;
41837;SDS011;27511;52.042;5.178;2022-08-19T08:51:15;32.88;;;19.17;;
41837;SDS011;27511;52.042;5.178;2022-08-19T08:53:45;34.78;;;20.88;;
41837;SDS011;27511;52.042;5.178;2022-08-19T08:56:13;34.97;;;20.42;;
41837;SDS011;27511;52.042;5.178;2022-08-19T08:58:42;35.63;;;20.55;;
41837;SDS011;27511;52.042;5.178;2022-08-19T09:01:22;30.23;;;18.55;;
41837;SDS011;27511;52.042;5.178;2022-08-19T09:03:48;29.60;;;20.35;;
41837;SDS011;27511;52.042;5.178;2022-08-19T09:09:01;30.63;;;19.27;;
41837;SDS011;27511;52.042;5.178;2022-08-19T09:11:46;30.33;;;20.80;;
41837;SDS011;27511;52.042;5.178;2022-08-19T09:14:45;28.40;;;19.60;;
41837;SDS011;27511;52.042;5.178;2022-08-19T09:17:23;30.13;;;19.02;;
41837;SDS011;27511;52.042;5.178;2022-08-19T09:19:59;32.05;;;19.45;;
41837;SDS011;27511;52.042;5.178;2022-08-19T09:22:39;34.30;;;21.35;;
41837;SDS011;27511;52.042;5.178;2022-08-19T09:25:08;32.10;;;20.10;;
41837;SDS011;27511;52.042;5.178;2022-08-19T09:27:36;34.58;;;22.05;;
41837;SDS011;27511;52.042;5.178;2022-08-19T09:30:03;35.38;;;22.67;;
41837;SDS011;27511;52.042;5.178;2022-08-19T09:32:30;34.47;;;22.05;;
41837;SDS011;27511;52.042;5.178;2022-08-19T09:34:55;32.80;;;22.10;;
41837;SDS011;27511;52.042;5.178;2022-08-19T09:37:23;34.63;;;21.52;;
41837;SDS011;27511;52.042;5.178;2022-08-19T09:39:49;37.85;;;23.20;;
41837;SDS011;27511;52.042;5.178;2022-08-19T09:42:15;33.35;;;22.17;;
41837;SDS011;27511;52.042;5.178;2022-08-19T09:44:41;33.22;;;21.80;;
41837;SDS011;27511;52.042;5.178;2022-08-19T09:47:08;35.17;;;22.58;;
41837;SDS011;27511;52.042;5.178;2022-08-19T09:49:36;36.22;;;23.33;;
41837;SDS011;27511;52.042;5.178;2022-08-19T09:52:02;33.70;;;22.60;;
41837;SDS011;27511;52.042;5.178;2022-08-19T09:54:28;32.92;;;21.60;;
41837;SDS011;27511;52.042;5.178;2022-08-19T09:56:54;39.47;;;24.13;;
41837;SDS011;27511;52.042;5.178;2022-08-19T09:59:22;37.70;;;24.67;;
41837;SDS011;27511;52.042;5.178;2022-08-19T10:01:48;41.10;;;25.88;;
41837;SDS011;27511;52.042;5.178;2022-08-19T10:04:14;40.58;;;24.95;;
41837;SDS011;27511;52.042;5.178;2022-08-19T10:06:39;36.28;;;24.27;;
41837;SDS011;27511;52.042;5.178;2022-08-19T10:09:07;39.40;;;24.17;;
41837;SDS011;27511;52.042;5.178;2022-08-19T10:11:36;38.35;;;24.70;;
41837;SDS011;27511;52.042;5.178;2022-08-19T10:14:04;35.00;;;23.65;;
41837;SDS011;27511;52.042;5.178;2022-08-19T10:16:33;36.80;;;24.40;;
41837;SDS011;27511;52.042;5.178;2022-08-19T10:19:01;39.88;;;25.23;;
41837;SDS011;27511;52.042;5.178;2022-08-19T10:21:30;40.35;;;25.55;;
41837;SDS011;27511;52.042;5.178;2022-08-19T10:23:58;36.50;;;24.05;;
41837;SDS011;27511;52.042;5.178;2022-08-19T10:26:27;36.40;;;24.50;;
41837;SDS011;27511;52.042;5.178;2022-08-19T10:28:55;39.33;;;24.70;;
41837;SDS011;27511;52.042;5.178;2022-08-19T10:31:22;34.63;;;23.92;;
41837;SDS011;27511;52.042;5.178;2022-08-19T10:33:55;39.55;;;25.25;;
41837;SDS011;27511;52.042;5.178;2022-08-19T10:36:29;41.42;;;25.77;;
41837;SDS011;27511;52.042;5.178;2022-08-19T10:38:57;34.80;;;23.20;;
41837;SDS011;27511;52.042;5.178;2022-08-19T10:41:27;43.17;;;27.25;;
41837;SDS011;27511;52.042;5.178;2022-08-19T10:43:56;40.95;;;25.45;;
41837;SDS011;27511;52.042;5.178;2022-08-19T10:46:24;40.45;;;23.83;;
41837;SDS011;27511;52.042;5.178;2022-08-19T10:48:51;39.63;;;24.90;;
41837;SDS011;27511;52.042;5.178;2022-08-19T10:51:18;36.20;;;24.30;;
41837;SDS011;27511;52.042;5.178;2022-08-19T10:54:03;39.28;;;24.15;;
41837;SDS011;27511;52.042;5.178;2022-08-19T10:56:29;37.53;;;25.45;;
41837;SDS011;27511;52.042;5.178;2022-08-19T10:59:15;34.72;;;23.25;;
41837;SDS011;27511;52.042;5.178;2022-08-19T11:01:43;38.88;;;25.08;;
41837;SDS011;27511;52.042;5.178;2022-08-19T11:04:09;37.75;;;22.85;;
41837;SDS011;27511;52.042;5.178;2022-08-19T11:06:38;40.55;;;25.20;;
41837;SDS011;27511;52.042;5.178;2022-08-19T11:09:06;37.75;;;24.85;;
41837;SDS011;27511;52.042;5.178;2022-08-19T11:11:32;33.25;;;22.15;;
41837;SDS011;27511;52.042;5.178;2022-08-19T11:14:04;31.17;;;23.80;;
41837;SDS011;27511;52.042;5.178;2022-08-19T11:16:30;33.45;;;24.75;;
41837;SDS011;27511;52.042;5.178;2022-08-19T11:18:57;31.98;;;23.05;;
41837;SDS011;27511;52.042;5.178;2022-08-19T11:21:25;34.53;;;23.83;;
41837;SDS011;27511;52.042;5.178;2022-08-19T11:24:05;31.70;;;22.30;;
41837;SDS011;27511;52.042;5.178;2022-08-19T11:26:33;34.22;;;24.02;;
41837;SDS011;27511;52.042;5.178;2022-08-19T11:28:59;33.42;;;22.58;;
41837;SDS011;27511;52.042;5.178;2022-08-19T11:31:28;37.65;;;25.50;;
41837;SDS011;27511;52.042;5.178;2022-08-19T11:33:56;34.05;;;24.48;;
41837;SDS011;27511;52.042;5.178;2022-08-19T11:36:24;38.15;;;23.63;;
41837;SDS011;27511;52.042;5.178;2022-08-19T11:38:51;35.25;;;24.27;;
41837;SDS011;27511;52.042;5.178;2022-08-19T11:41:18;28.55;;;22.58;;
41837;SDS011;27511;52.042;5.178;2022-08-19T11:43:45;32.10;;;23.40;;
41837;SDS011;27511;52.042;5.178;2022-08-19T11:46:12;28.55;;;21.60;;
41837;SDS011;27511;52.042;5.178;2022-08-19T11:48:39;31.98;;;22.20;;
41837;SDS011;27511;52.042;5.178;2022-08-19T11:51:10;26.85;;;20.25;;
41837;SDS011;27511;52.042;5.178;2022-08-19T11:53:37;33.05;;;22.08;;
41837;SDS011;27511;52.042;5.178;2022-08-19T11:56:04;30.65;;;21.77;;
41837;SDS011;27511;52.042;5.178;2022-08-19T11:58:31;32.60;;;21.35;;
41837;SDS011;27511;52.042;5.178;2022-08-19T12:00:57;27.17;;;18.27;;
41837;SDS011;27511;52.042;5.178;2022-08-19T12:03:23;27.15;;;20.17;;
41837;SDS011;27511;52.042;5.178;2022-08-19T12:05:49;26.08;;;19.65;;
41837;SDS011;27511;52.042;5.178;2022-08-19T12:08:15;25.77;;;19.85;;
41837;SDS011;27511;52.042;5.178;2022-08-19T12:10:42;24.00;;;17.83;;
41837;SDS011;27511;52.042;5.178;2022-08-19T12:13:11;24.48;;;17.20;;
41837;SDS011;27511;52.042;5.178;2022-08-19T12:15:43;21.88;;;16.05;;
41837;SDS011;27511;52.042;5.178;2022-08-19T12:18:11;23.60;;;15.73;;
41837;SDS011;27511;52.042;5.178;2022-08-19T12:20:39;17.08;;;13.70;;
41837;SDS011;27511;52.042;5.178;2022-08-19T12:23:06;15.55;;;12.68;;
41837;SDS011;27511;52.042;5.178;2022-08-19T12:25:33;17.98;;;13.68;;
41837;SDS011;27511;52.042;5.178;2022-08-19T12:27:59;17.70;;;13.43;;
41837;SDS011;27511;52.042;5.178;2022-08-19T12:30:25;10.70;;;8.90;;
41837;SDS011;27511;52.042;5.178;2022-08-19T12:32:51;9.60;;;8.13;;
41837;SDS011;27511;52.042;5.178;2022-08-19T12:35:17;8.35;;;6.50;;
41837;SDS011;27511;52.042;5.178;2022-08-19T12:37:44;6.90;;;5.50;;
41837;SDS011;27511;52.042;5.178;2022-08-19T12:40:11;8.30;;;5.95;;
41837;SDS011;27511;52.042;5.178;2022-08-19T12:42:37;8.48;;;6.55;;
41837;SDS011;27511;52.042;5.178;2022-08-19T12:45:07;7.00;;;6.15;;
41837;SDS011;27511;52.042;5.178;2022-08-19T12:47:37;12.13;;;7.10;;
41837;SDS011;27511;52.042;5.178;2022-08-19T12:50:03;10.05;;;7.60;;
41837;SDS011;27511;52.042;5.178;2022-08-19T12:52:31;9.70;;;7.18;;
41837;SDS011;27511;52.042;5.178;2022-08-19T12:54:57;7.93;;;7.07;;
41837;SDS011;27511;52.042;5.178;2022-08-19T12:57:23;9.45;;;7.05;;
41837;SDS011;27511;52.042;5.178;2022-08-19T12:59:53;11.80;;;8.60;;
41837;SDS011;27511;52.042;5.178;2022-08-19T13:02:19;10.82;;;8.15;;
41837;SDS011;27511;52.042;5.178;2022-08-19T13:04:46;14.63;;;9.65;;
41837;SDS011;27511;52.042;5.178;2022-08-19T13:07:12;12.32;;;9.30;;
41837;SDS011;27511;52.042;5.178;2022-08-19T13:09:37;12.80;;;8.07;;
41837;SDS011;27511;52.042;5.178;2022-08-19T13:12:06;12.15;;;8.52;;
41837;SDS011;27511;52.042;5.178;2022-08-19T13:14:32;9.98;;;7.50;;
41837;SDS011;27511;52.042;5.178;2022-08-19T13:16:58;9.48;;;7.65;;
41837;SDS011;27511;52.042;5.178;2022-08-19T13:19:24;9.48;;;7.07;;
41837;SDS011;27511;52.042;5.178;2022-08-19T13:21:50;9.63;;;6.85;;
41837;SDS011;27511;52.042;5.178;2022-08-19T13:24:16;9.35;;;7.38;;
41837;SDS011;27511;52.042;5.178;2022-08-19T13:26:42;8.73;;;7.18;;
41837;SDS011;27511;52.042;5.178;2022-08-19T13:29:10;8.40;;;6.15;;
41837;SDS011;27511;52.042;5.178;2022-08-19T13:31:54;7.93;;;6.28;;
41837;SDS011;27511;52.042;5.178;2022-08-19T13:37:04;6.65;;;4.60;;
41837;SDS011;27511;52.042;5.178;2022-08-19T13:39:33;5.25;;;4.78;;
41837;SDS011;27511;52.042;5.178;2022-08-19T13:42:00;5.85;;;5.22;;
41837;SDS011;27511;52.042;5.178;2022-08-19T13:44:26;7.57;;;4.53;;
41837;SDS011;27511;52.042;5.178;2022-08-19T13:46:54;8.82;;;6.03;;
41837;SDS011;27511;52.042;5.178;2022-08-19T13:49:27;8.43;;;6.70;;
41837;SDS011;27511;52.042;5.178;2022-08-19T13:51:55;8.20;;;6.10;;
41837;SDS011;27511;52.042;5.178;2022-08-19T13:54:21;8.98;;;6.07;;
41837;SDS011;27511;52.042;5.178;2022-08-19T13:56:47;8.50;;;5.95;;
41837;SDS011;27511;52.042;5.178;2022-08-19T13:59:12;7.00;;;6.22;;
41837;SDS011;27511;52.042;5.178;2022-08-19T14:01:38;8.65;;;6.55;;
41837;SDS011;27511;52.042;5.178;2022-08-19T14:04:04;10.05;;;7.45;;
41837;SDS011;27511;52.042;5.178;2022-08-19T14:06:30;8.30;;;7.10;;
41837;SDS011;27511;52.042;5.178;2022-08-19T14:08:56;8.57;;;6.97;;
41837;SDS011;27511;52.042;5.178;2022-08-19T14:11:22;7.82;;;6.63;;
41837;SDS011;27511;52.042;5.178;2022-08-19T14:13:48;9.20;;;7.18;;
41837;SDS011;27511;52.042;5.178;2022-08-19T14:16:14;8.63;;;7.07;;
41837;SDS011;27511;52.042;5.178;2022-08-19T14:18:40;6.68;;;6.07;;
41837;SDS011;27511;52.042;5.178;2022-08-19T14:21:07;7.93;;;7.13;;
41837;SDS011;27511;52.042;5.178;2022-08-19T14:23:33;7.45;;;6.80;;
41837;SDS011;27511;52.042;5.178;2022-08-19T14:26:05;7.55;;;6.85;;
41837;SDS011;27511;52.042;5.178;2022-08-19T14:28:32;6.93;;;6.22;;
41837;SDS011;27511;52.042;5.178;2022-08-19T14:30:58;7.47;;;6.05;;
41837;SDS011;27511;52.042;5.178;2022-08-19T14:33:24;8.18;;;6.70;;
41837;SDS011;27511;52.042;5.178;2022-08-19T14:35:49;8.18;;;7.35;;
41837;SDS011;27511;52.042;5.178;2022-08-19T14:38:16;7.65;;;6.93;;
41837;SDS011;27511;52.042;5.178;2022-08-19T14:40:42;8.48;;;6.38;;
41837;SDS011;27511;52.042;5.178;2022-08-19T14:43:08;6.63;;;6.03;;
41837;SDS011;27511;52.042;5.178;2022-08-19T14:45:35;6.22;;;5.57;;
41837;SDS011;27511;52.042;5.178;2022-08-19T14:48:03;6.57;;;5.57;;
41837;SDS011;27511;52.042;5.178;2022-08-19T14:50:30;5.47;;;4.47;;
41837;SDS011;27511;52.042;5.178;2022-08-19T14:53:04;4.95;;;4.45;;